createdAt,value
2019-04-23T00:00:13.539Z,4.31
2019-04-23T00:01:23.830Z,4.29
2019-04-23T00:02:13.463Z,4.26
2019-04-23T00:03:13.986Z,4.21
2019-04-23T00:04:10.401Z,4.20
2019-04-23T00:05:21.532Z,4.26
2019-04-23T00:06:18.987Z,4.29
2019-04-23T00:07:15.714Z,4.25
2019-04-23T00:08:17.411Z,4.18
2019-04-23T00:09:22.405Z,4.11
2019-04-23T00:11:15.722Z,4.07
2019-04-23T00:12:26.490Z,4.08
2019-04-23T00:13:12.472Z,4.10
2019-04-23T00:15:10.647Z,4.08
2019-04-23T00:17:14.991Z,4.10
2019-04-23T00:18:14.755Z,3.92
2019-04-23T00:19:11.741Z,3.90
2019-04-23T00:20:14.295Z,3.96
2019-04-23T00:21:13.533Z,3.96
2019-04-23T00:22:17.895Z,3.96
2019-04-23T00:23:11.416Z,3.99
2019-04-23T00:24:23.861Z,3.98
2019-04-23T00:25:38.103Z,3.92
2019-04-23T00:26:17.744Z,3.92
2019-04-23T00:27:22.615Z,4.02
2019-04-23T00:29:19.969Z,3.86
2019-04-23T00:30:10.385Z,3.86
2019-04-23T00:31:19.545Z,3.93
2019-04-23T00:32:15.120Z,3.88
2019-04-23T00:33:21.969Z,3.92
2019-04-23T00:34:16.389Z,3.88
2019-04-23T00:35:12.587Z,3.84
2019-04-23T00:36:19.859Z,3.89
2019-04-23T00:37:18.877Z,3.81
2019-04-23T00:38:18.384Z,3.77
2019-04-23T00:39:13.856Z,3.84
2019-04-23T00:40:12.116Z,3.80
2019-04-23T00:41:15.987Z,3.71
2019-04-23T00:42:16.846Z,3.60
2019-04-23T00:43:15.058Z,3.64
2019-04-23T00:44:15.041Z,3.67
2019-04-23T00:45:12.359Z,3.67
2019-04-23T00:46:15.519Z,3.63
2019-04-23T00:47:14.309Z,3.57
2019-04-23T00:48:24.159Z,3.50
2019-04-23T00:50:38.537Z,3.50
2019-04-23T00:51:20.269Z,3.59
2019-04-23T00:52:24.607Z,3.56
2019-04-23T00:53:18.911Z,3.56
2019-04-23T00:54:20.779Z,3.42
2019-04-23T00:56:32.331Z,3.46
2019-04-23T00:57:16.384Z,3.46
2019-04-23T00:59:12.635Z,3.44
2019-04-23T01:00:24.293Z,3.49
2019-04-23T01:01:12.934Z,3.39
2019-04-23T01:02:18.117Z,3.33
2019-04-23T01:03:12.554Z,3.37
2019-04-23T01:04:15.930Z,3.37
2019-04-23T01:05:17.957Z,3.37
2019-04-23T01:06:13.012Z,3.41
2019-04-23T01:07:11.339Z,3.42
2019-04-23T01:08:26.435Z,3.45
2019-04-23T01:09:14.267Z,3.37
2019-04-23T01:10:15.024Z,3.35
2019-04-23T01:11:11.245Z,3.37
2019-04-23T01:12:14.233Z,3.41
2019-04-23T01:13:14.632Z,3.37
2019-04-23T01:14:18.023Z,3.37
2019-04-23T01:15:21.299Z,3.33
2019-04-23T01:16:11.601Z,3.26
2019-04-23T01:17:22.136Z,3.17
2019-04-23T01:18:24.092Z,3.23
2019-04-23T01:19:07.990Z,3.26
2019-04-23T01:20:12.520Z,3.19
2019-04-23T01:20:54.197Z,3.15
2019-04-23T01:21:51.487Z,3.17
2019-04-23T01:22:50.882Z,3.08
2019-04-23T01:23:56.434Z,3.15
2019-04-23T01:24:52.967Z,3.10
2019-04-23T01:26:00.351Z,3.15
2019-04-23T01:27:35.384Z,3.12
2019-04-23T01:28:14.001Z,3.07
2019-04-23T01:29:35.824Z,2.99
2019-04-23T01:30:15.901Z,2.99
2019-04-23T01:32:20.947Z,2.97
2019-04-23T01:33:31.337Z,2.95
2019-04-23T01:34:22.454Z,2.99
2019-04-23T01:36:21.766Z,3.02
2019-04-23T01:37:19.049Z,3.05
2019-04-23T01:38:18.695Z,3.04
2019-04-23T01:39:17.823Z,2.98
2019-04-23T01:40:19.204Z,3.12
2019-04-23T01:41:21.719Z,3.05
2019-04-23T01:42:22.872Z,2.98
2019-04-23T01:43:16.716Z,3.02
2019-04-23T01:44:24.005Z,2.97
2019-04-23T01:45:20.333Z,2.95
2019-04-23T01:46:12.816Z,2.99
2019-04-23T01:47:18.685Z,3.04
2019-04-23T01:48:13.250Z,2.99
2019-04-23T01:49:20.776Z,2.99
2019-04-23T01:50:21.898Z,2.84
2019-04-23T01:51:22.515Z,2.89
2019-04-23T01:52:24.977Z,2.90
2019-04-23T01:53:18.407Z,2.87
2019-04-23T01:54:22.202Z,2.87
2019-04-23T01:55:24.422Z,2.83
2019-04-23T01:56:19.707Z,2.90
2019-04-23T01:57:18.120Z,2.92
2019-04-23T01:59:18.325Z,2.79
2019-04-23T02:01:18.988Z,2.90
2019-04-23T02:02:22.819Z,2.92
2019-04-23T02:03:18.154Z,2.89
2019-04-23T02:04:36.517Z,2.90
2019-04-23T02:05:23.206Z,2.76
2019-04-23T02:07:24.470Z,2.71
2019-04-23T02:08:14.552Z,2.63
2019-04-23T02:09:18.439Z,2.68
2019-04-23T02:10:33.281Z,2.62
2019-04-23T02:11:13.278Z,2.58
2019-04-23T02:12:21.434Z,2.69
2019-04-23T02:14:14.334Z,2.63
2019-04-23T02:15:18.054Z,2.62
2019-04-23T02:16:19.310Z,2.58
2019-04-23T02:17:17.131Z,2.62
2019-04-23T02:18:17.956Z,2.65
2019-04-23T02:19:23.817Z,2.61
2019-04-23T02:20:25.931Z,2.65
2019-04-23T02:21:15.370Z,2.69
2019-04-23T02:22:28.488Z,2.61
2019-04-23T02:23:18.614Z,2.59
2019-04-23T02:24:12.127Z,2.62
2019-04-23T02:25:24.866Z,2.55
2019-04-23T02:26:16.560Z,2.62
2019-04-23T02:27:20.002Z,2.58
2019-04-23T02:28:32.874Z,2.55
2019-04-23T02:29:30.011Z,2.48
2019-04-23T02:30:40.122Z,2.41
2019-04-23T02:31:43.725Z,2.48
2019-04-23T02:32:23.761Z,2.47
2019-04-23T02:34:31.242Z,2.48
2019-04-23T02:35:36.993Z,2.38
2019-04-23T02:36:11.192Z,2.41
2019-04-23T02:39:21.841Z,2.43
2019-04-23T02:40:26.328Z,2.37
2019-04-23T02:41:27.665Z,2.40
2019-04-23T02:42:59.381Z,2.36
2019-04-23T02:43:16.273Z,2.29
2019-04-23T02:44:34.929Z,2.37
2019-04-23T02:46:43.864Z,2.36
2019-04-23T02:48:24.108Z,2.32
2019-04-23T02:49:27.073Z,2.23
2019-04-23T02:52:24.897Z,2.25
2019-04-23T02:53:45.538Z,2.26
2019-04-23T02:54:37.564Z,2.23
2019-04-23T02:55:27.118Z,2.26
2019-04-23T02:56:34.736Z,2.30
2019-04-23T02:57:24.707Z,2.25
2019-04-23T02:58:28.167Z,2.23
2019-04-23T02:59:28.532Z,2.12
2019-04-23T03:01:27.493Z,2.23
2019-04-23T03:04:28.723Z,2.20
2019-04-23T03:05:22.191Z,2.22
2019-04-23T03:06:19.161Z,2.15
2019-04-23T03:08:26.974Z,2.22
2019-04-23T03:09:27.863Z,2.15
2019-04-23T03:10:24.667Z,2.15
2019-04-23T03:12:32.010Z,2.22
2019-04-23T03:15:28.290Z,2.18
2019-04-23T03:16:31.769Z,2.20
2019-04-23T03:17:31.018Z,2.20
2019-04-23T03:19:25.591Z,2.15
2019-04-23T03:22:25.112Z,2.19
2019-04-23T03:24:34.198Z,2.08
2019-04-23T03:25:31.892Z,2.08
2019-04-23T03:26:40.733Z,2.07
2019-04-23T03:28:27.344Z,1.98
2019-04-23T03:29:49.226Z,2.04
2019-04-23T03:30:33.430Z,2.07
2019-04-23T03:36:17.275Z,2.08
2019-04-23T03:37:34.041Z,2.09
2019-04-23T03:38:41.628Z,2.04
2019-04-23T03:39:30.519Z,2.11
2019-04-23T03:40:13.782Z,2.08
2019-04-23T03:41:29.529Z,2.09
2019-04-23T03:43:27.082Z,1.93
2019-04-23T03:44:25.011Z,1.98
2019-04-23T03:45:36.860Z,1.89
2019-04-23T03:47:24.969Z,1.93
2019-04-23T03:48:34.001Z,1.93
2019-04-23T03:49:19.447Z,1.93
2019-04-23T03:50:37.978Z,2.00
2019-04-23T03:51:26.035Z,1.95
2019-04-23T03:52:27.843Z,1.93
2019-04-23T03:54:33.794Z,1.92
2019-04-23T03:55:32.757Z,1.85
2019-04-23T03:57:24.500Z,1.68
2019-04-23T03:58:27.911Z,1.88
2019-04-23T04:03:57.993Z,1.90
2019-04-23T04:04:26.923Z,1.92
2019-04-23T04:05:33.411Z,1.85
2019-04-23T04:06:33.735Z,1.82
2019-04-23T04:10:24.358Z,1.82
2019-04-23T04:11:21.899Z,1.72
2019-04-23T04:12:34.841Z,1.83
2019-04-23T04:13:31.050Z,1.77
2019-04-23T04:15:53.664Z,1.82
2019-04-23T04:16:17.926Z,1.72
2019-04-23T04:17:19.766Z,1.79
2019-04-23T04:20:35.623Z,1.85
2019-04-23T04:21:27.313Z,1.88
2019-04-23T04:22:28.863Z,1.85
2019-04-23T04:24:29.549Z,1.88
2019-04-23T04:25:30.516Z,1.92
2019-04-23T04:26:32.718Z,1.88
2019-04-23T04:27:31.695Z,1.82
2019-04-23T04:29:35.040Z,1.89
2019-04-23T04:30:29.581Z,1.86
2019-04-23T04:31:21.894Z,1.86
2019-04-23T04:32:15.112Z,1.90
2019-04-23T04:34:43.806Z,2.05
2019-04-23T04:35:24.945Z,2.11
2019-04-23T04:36:45.600Z,2.14
2019-04-23T04:38:38.507Z,2.08
2019-04-23T04:40:39.535Z,2.23
2019-04-23T04:41:29.087Z,2.12
2019-04-23T04:42:14.827Z,2.23
2019-04-23T04:46:35.431Z,2.22
2019-04-23T04:47:28.045Z,2.20
2019-04-23T04:48:23.151Z,2.14
2019-04-23T04:49:25.520Z,2.19
2019-04-23T04:50:16.917Z,2.14
2019-04-23T04:51:29.043Z,2.15
2019-04-23T04:52:34.549Z,2.19
2019-04-23T04:54:21.346Z,2.26
2019-04-23T04:55:23.781Z,2.25
2019-04-23T04:57:30.236Z,2.32
2019-04-23T04:58:40.707Z,2.23
2019-04-23T04:59:37.801Z,2.27
2019-04-23T05:02:30.371Z,2.36
2019-04-23T05:05:58.314Z,2.40
2019-04-23T05:06:31.159Z,2.48
2019-04-23T05:07:27.861Z,2.36
2019-04-23T05:08:25.931Z,2.32
2019-04-23T05:09:25.217Z,2.33
2019-04-23T05:10:39.145Z,2.36
2019-04-23T05:11:26.286Z,2.44
2019-04-23T05:12:23.774Z,2.44
2019-04-23T05:16:22.797Z,2.51
2019-04-23T05:17:28.095Z,2.63
2019-04-23T05:18:23.625Z,2.63
2019-04-23T05:20:19.961Z,2.62
2019-04-23T05:21:43.566Z,2.73
2019-04-23T05:22:22.586Z,2.76
2019-04-23T05:23:21.124Z,2.74
2019-04-23T05:24:28.689Z,2.74
2019-04-23T05:25:12.538Z,2.80
2019-04-23T05:26:23.959Z,2.79
2019-04-23T05:27:11.059Z,2.77
2019-04-23T05:28:31.215Z,2.79
2019-04-23T05:29:11.455Z,2.74
2019-04-23T05:31:19.030Z,2.81
2019-04-23T05:32:14.733Z,2.87
2019-04-23T05:33:18.447Z,2.90
2019-04-23T05:34:14.921Z,2.86
2019-04-23T05:35:29.975Z,3.01
2019-04-23T05:37:26.304Z,2.95
2019-04-23T05:38:29.087Z,2.97
2019-04-23T05:39:24.723Z,3.08
2019-04-23T05:40:24.196Z,3.07
2019-04-23T05:42:22.628Z,3.12
2019-04-23T05:43:22.286Z,3.12
2019-04-23T05:45:18.483Z,3.10
2019-04-23T05:46:21.265Z,3.12
2019-04-23T05:47:25.486Z,3.13
2019-04-23T05:48:21.554Z,3.19
2019-04-23T05:50:30.212Z,3.31
2019-04-23T05:51:24.285Z,3.25
2019-04-23T05:52:17.723Z,3.33
2019-04-23T05:53:33.465Z,3.33
2019-04-23T05:54:19.048Z,3.34
2019-04-23T05:55:13.270Z,3.46
2019-04-23T05:56:15.156Z,3.46
2019-04-23T05:57:20.023Z,3.41
2019-04-23T06:00:15.905Z,3.60
2019-04-23T06:01:39.858Z,3.54
2019-04-23T06:02:20.760Z,3.62
2019-04-23T06:03:16.352Z,3.64
2019-04-23T06:04:21.636Z,3.71
2019-04-23T06:05:17.580Z,3.70
2019-04-23T06:06:21.629Z,3.84
2019-04-23T06:07:35.867Z,3.84
2019-04-23T06:08:21.598Z,3.82
2019-04-23T06:10:11.011Z,3.90
2019-04-23T06:11:18.536Z,4.04
2019-04-23T06:12:13.518Z,3.90
2019-04-23T06:13:18.623Z,3.96
2019-04-23T06:15:11.225Z,3.99
2019-04-23T06:16:25.302Z,4.07
2019-04-23T06:17:24.984Z,4.04
2019-04-23T06:18:17.131Z,4.16
2019-04-23T06:19:16.921Z,4.51
2019-04-23T06:20:15.128Z,5.55
2019-04-23T06:21:15.286Z,7.41
2019-04-23T06:22:22.390Z,9.42
2019-04-23T06:23:27.020Z,11.21
2019-04-23T06:24:22.164Z,12.66
2019-04-23T06:25:33.671Z,13.96
2019-04-23T06:28:12.767Z,17.42
2019-04-23T06:29:20.519Z,17.99
2019-04-23T06:30:17.485Z,18.89
2019-04-23T06:31:15.069Z,19.52
2019-04-23T06:32:16.762Z,19.75
2019-04-23T06:34:17.159Z,20.85
2019-04-23T06:35:11.836Z,21.38
2019-04-23T06:36:19.006Z,21.89
2019-04-23T06:37:16.097Z,22.44
2019-04-23T06:38:39.243Z,23.01
2019-04-23T06:39:16.185Z,23.38
2019-04-23T06:40:13.861Z,23.56
2019-04-23T06:41:15.691Z,23.52
2019-04-23T06:42:14.436Z,23.99
2019-04-23T06:43:22.596Z,24.19
2019-04-23T06:44:19.127Z,24.63
2019-04-23T06:45:10.457Z,24.80
2019-04-23T06:46:11.893Z,24.82
2019-04-23T06:47:17.033Z,25.31
2019-04-23T06:48:22.209Z,25.76
2019-04-23T06:49:17.270Z,25.91
2019-04-23T06:50:27.117Z,26.17
2019-04-23T06:51:21.791Z,26.35
2019-04-23T06:53:14.558Z,27.01
2019-04-23T06:54:18.726Z,27.02
2019-04-23T06:55:15.769Z,27.01
2019-04-23T06:56:17.697Z,27.02
2019-04-23T06:58:19.106Z,27.48
2019-04-23T06:59:22.328Z,27.50
2019-04-23T07:00:19.798Z,27.30
2019-04-23T07:01:09.704Z,27.68
2019-04-23T07:03:10.828Z,28.65
2019-04-23T07:04:17.272Z,28.85
2019-04-23T07:05:16.188Z,28.42
2019-04-23T07:06:30.144Z,28.33
2019-04-23T07:08:30.626Z,29.27
2019-04-23T07:09:35.381Z,29.49
2019-04-23T07:10:09.782Z,29.54
2019-04-23T07:12:15.122Z,30.04
2019-04-23T07:13:24.295Z,30.37
2019-04-23T07:14:07.344Z,30.32
2019-04-23T07:15:30.971Z,30.61
2019-04-23T07:17:09.207Z,30.15
2019-04-23T07:18:11.577Z,29.99
2019-04-23T07:19:27.247Z,29.94
2019-04-23T07:20:15.124Z,29.94
2019-04-23T07:23:26.060Z,30.10
2019-04-23T07:24:15.192Z,29.66
2019-04-23T07:25:15.399Z,28.61
2019-04-23T07:26:29.695Z,28.79
2019-04-23T07:27:14.886Z,29.55
2019-04-23T07:28:18.109Z,30.13
2019-04-23T07:29:15.681Z,30.00
2019-04-23T07:30:15.552Z,30.00
2019-04-23T07:31:20.343Z,30.25
2019-04-23T07:32:15.132Z,29.67
2019-04-23T07:33:14.245Z,29.15
2019-04-23T07:34:25.776Z,28.97
2019-04-23T07:35:13.749Z,29.49
2019-04-23T07:36:17.853Z,29.12
2019-04-23T07:37:13.700Z,29.07
2019-04-23T07:38:21.930Z,28.36
2019-04-23T07:39:18.966Z,28.60
2019-04-23T07:41:23.428Z,28.80
2019-04-23T07:42:16.860Z,28.43
2019-04-23T07:43:18.420Z,28.94
2019-04-23T07:44:21.025Z,28.88
2019-04-23T07:45:33.153Z,29.91
2019-04-23T07:46:25.590Z,31.00
2019-04-23T07:48:16.717Z,32.10
2019-04-23T07:49:17.701Z,32.19
2019-04-23T07:50:26.180Z,32.65
2019-04-23T07:51:14.091Z,33.06
2019-04-23T07:52:14.943Z,32.06
2019-04-23T07:54:21.254Z,29.89
2019-04-23T07:55:20.121Z,30.73
2019-04-23T07:56:14.636Z,31.52
2019-04-23T07:57:29.205Z,31.64
2019-04-23T07:58:19.551Z,32.13
2019-04-23T07:59:20.687Z,32.22
2019-04-23T08:00:18.243Z,32.54
2019-04-23T08:01:14.379Z,31.75
2019-04-23T08:02:21.946Z,31.57
2019-04-23T08:04:18.254Z,31.35
2019-04-23T08:05:32.027Z,30.90
2019-04-23T08:06:15.259Z,30.96
2019-04-23T08:07:14.690Z,31.56
2019-04-23T08:08:15.128Z,32.07
2019-04-23T08:09:19.124Z,32.31
2019-04-23T08:10:17.005Z,31.47
2019-04-23T08:12:19.294Z,32.17
2019-04-23T08:13:15.863Z,32.44
2019-04-23T08:14:07.913Z,32.99
2019-04-23T08:15:14.998Z,32.22
2019-04-23T08:16:25.918Z,31.97
2019-04-23T08:17:14.054Z,32.13
2019-04-23T08:19:14.256Z,32.21
2019-04-23T08:20:11.139Z,32.12
2019-04-23T08:21:16.416Z,32.09
2019-04-23T08:23:21.033Z,31.85
2019-04-23T08:24:10.255Z,31.98
2019-04-23T08:25:14.295Z,31.56
2019-04-23T08:26:24.212Z,31.40
2019-04-23T08:27:18.621Z,31.50
2019-04-23T08:28:29.044Z,31.74
2019-04-23T08:29:14.942Z,32.25
2019-04-23T08:30:09.447Z,32.63
2019-04-23T08:31:15.152Z,32.77
2019-04-23T08:33:12.165Z,30.64
2019-04-23T08:35:16.392Z,30.19
2019-04-23T08:37:15.337Z,30.01
2019-04-23T08:38:21.021Z,29.63
2019-04-23T08:39:18.279Z,30.49
2019-04-23T08:40:14.685Z,30.63
2019-04-23T08:43:27.922Z,31.42
2019-04-23T08:44:24.008Z,32.24
2019-04-23T08:45:28.436Z,32.53
2019-04-23T08:46:14.000Z,31.62
2019-04-23T08:50:19.365Z,31.53
2019-04-23T08:51:25.982Z,31.53
2019-04-23T08:52:18.741Z,32.28
2019-04-23T08:54:27.965Z,32.31
2019-04-23T08:55:13.683Z,31.49
2019-04-23T08:56:16.970Z,31.19
2019-04-23T08:57:17.141Z,31.65
2019-04-23T08:59:20.539Z,31.15
2019-04-23T09:00:14.736Z,30.25
2019-04-23T09:01:10.630Z,30.11
2019-04-23T09:02:24.197Z,31.13
2019-04-23T09:03:18.730Z,31.53
2019-04-23T09:04:21.481Z,32.06
2019-04-23T09:06:10.770Z,32.16
2019-04-23T09:07:16.548Z,31.74
2019-04-23T09:09:20.279Z,31.78
2019-04-23T09:10:19.654Z,33.00
2019-04-23T09:11:32.465Z,34.42
2019-04-23T09:12:18.904Z,35.34
2019-04-23T09:14:27.759Z,35.95
2019-04-23T09:15:18.299Z,36.16
2019-04-23T09:16:09.123Z,34.69
2019-04-23T09:18:16.036Z,33.97
2019-04-23T09:19:20.029Z,34.40
2019-04-23T09:21:16.089Z,33.87
2019-04-23T09:22:33.412Z,32.76
2019-04-23T09:23:13.199Z,32.35
2019-04-23T09:24:09.567Z,31.34
2019-04-23T09:25:20.177Z,31.50
2019-04-23T09:26:07.593Z,31.62
2019-04-23T09:28:16.109Z,30.94
2019-04-23T09:29:14.867Z,30.53
2019-04-23T09:30:13.152Z,30.49
2019-04-23T09:31:27.973Z,30.32
2019-04-23T09:32:22.340Z,29.74
2019-04-23T09:33:21.667Z,28.80
2019-04-23T09:34:11.315Z,27.03
2019-04-23T09:35:24.134Z,27.24
2019-04-23T09:36:18.168Z,27.77
2019-04-23T09:37:20.639Z,28.73
2019-04-23T09:38:11.588Z,29.14
2019-04-23T09:39:12.517Z,29.26
2019-04-23T09:40:25.335Z,28.77
2019-04-23T09:42:14.747Z,29.26
2019-04-23T09:43:13.778Z,29.29
2019-04-23T09:44:39.856Z,29.11
2019-04-23T09:45:15.161Z,28.92
2019-04-23T09:46:17.663Z,28.79
2019-04-23T09:47:16.012Z,28.33
2019-04-23T09:48:31.786Z,28.13
2019-04-23T09:49:26.049Z,27.98
2019-04-23T09:50:16.014Z,28.52
2019-04-23T09:52:13.361Z,28.24
2019-04-23T09:53:17.090Z,27.87
2019-04-23T09:55:24.182Z,26.41
2019-04-23T09:56:14.633Z,24.52
2019-04-23T09:57:10.589Z,23.49
2019-04-23T09:58:11.880Z,22.51
2019-04-23T09:59:25.271Z,21.91
2019-04-23T10:00:25.267Z,21.40
2019-04-23T10:01:20.235Z,20.81
2019-04-23T10:02:05.515Z,20.51
2019-04-23T10:03:02.406Z,20.48
2019-04-23T10:04:00.206Z,20.25
2019-04-23T10:05:01.310Z,20.23
2019-04-23T10:05:53.396Z,20.25
2019-04-23T10:07:01.592Z,20.23
2019-04-23T10:07:54.757Z,20.23
2019-04-23T10:08:51.941Z,20.10
2019-04-23T10:09:47.716Z,19.89
2019-04-23T10:10:45.011Z,19.92
2019-04-23T10:11:45.174Z,19.89
2019-04-23T10:12:45.756Z,19.86
2019-04-23T10:13:46.437Z,19.80
2019-04-23T10:14:53.900Z,19.79
2019-04-23T10:15:48.019Z,19.68
2019-04-23T10:16:45.210Z,19.67
2019-04-23T10:17:46.441Z,19.79
2019-04-23T10:18:44.877Z,19.89
2019-04-23T10:19:46.687Z,19.87
2019-04-23T10:20:44.624Z,19.82
2019-04-23T10:21:47.048Z,19.80
2019-04-23T10:22:44.387Z,19.92
2019-04-23T10:23:45.220Z,19.71
2019-04-23T10:24:45.487Z,19.68
2019-04-23T10:25:45.711Z,19.71
2019-04-23T10:26:45.772Z,19.68
2019-04-23T10:27:45.351Z,19.86
2019-04-23T10:28:44.327Z,19.94
2019-04-23T10:29:45.758Z,19.95
2019-04-23T10:30:44.918Z,19.75
2019-04-23T10:31:44.180Z,19.78
2019-04-23T10:32:45.293Z,19.83
2019-04-23T10:33:44.190Z,19.92
2019-04-23T10:34:53.443Z,19.90
2019-04-23T10:35:53.097Z,19.80
2019-04-23T10:36:45.113Z,20.00
2019-04-23T10:37:52.932Z,20.07
2019-04-23T10:38:53.998Z,19.89
2019-04-23T10:39:52.752Z,19.94
2019-04-23T10:40:48.474Z,19.90
2019-04-23T10:41:47.473Z,19.92
2019-04-23T10:42:47.576Z,19.94
2019-04-23T10:43:48.016Z,19.87
2019-04-23T10:44:46.419Z,19.90
2019-04-23T10:46:03.863Z,19.97
2019-04-23T10:47:11.522Z,19.98
2019-04-23T10:48:22.957Z,20.00
2019-04-23T10:49:43.969Z,19.94
2019-04-23T10:50:17.285Z,19.94
2019-04-23T10:51:23.901Z,20.04
2019-04-23T10:53:26.238Z,20.15
2019-04-23T10:54:26.403Z,20.13
2019-04-23T10:55:14.548Z,20.15
2019-04-23T10:56:20.034Z,20.17
2019-04-23T10:57:11.264Z,20.16
2019-04-23T10:58:17.430Z,20.26
2019-04-23T10:59:19.842Z,20.22
2019-04-23T11:00:09.691Z,20.25
2019-04-23T11:01:16.363Z,20.13
2019-04-23T11:03:38.159Z,20.33
2019-04-23T11:05:16.232Z,20.40
2019-04-23T11:06:16.558Z,20.40
2019-04-23T11:07:25.883Z,20.34
2019-04-23T11:08:13.193Z,20.31
2019-04-23T11:09:27.246Z,20.41
2019-04-23T11:11:18.727Z,20.50
2019-04-23T11:12:23.974Z,20.50
2019-04-23T11:13:17.743Z,20.53
2019-04-23T11:14:23.142Z,20.53
2019-04-23T11:16:39.936Z,20.34
2019-04-23T11:17:21.520Z,20.20
2019-04-23T11:18:04.792Z,20.07
2019-04-23T11:19:15.677Z,20.12
2019-04-23T11:22:36.192Z,20.22
2019-04-23T11:23:05.027Z,20.13
2019-04-23T11:24:21.281Z,20.30
2019-04-23T11:26:19.935Z,20.27
2019-04-23T11:27:16.025Z,20.34
2019-04-23T11:28:17.359Z,20.35
2019-04-23T11:29:21.030Z,20.31
2019-04-23T11:30:33.289Z,20.25
2019-04-23T11:31:26.288Z,20.17
2019-04-23T11:33:15.239Z,20.01
2019-04-23T11:34:20.301Z,20.02
2019-04-23T11:36:43.596Z,20.08
2019-04-23T11:39:12.834Z,20.23
2019-04-23T11:40:15.660Z,20.25
2019-04-23T11:41:21.467Z,20.23
2019-04-23T11:42:19.302Z,20.34
2019-04-23T11:43:22.789Z,20.38
2019-04-23T11:44:22.175Z,20.26
2019-04-23T11:45:29.383Z,20.25
2019-04-23T11:47:33.125Z,20.17
2019-04-23T11:49:33.744Z,20.17
2019-04-23T11:50:19.019Z,20.37
2019-04-23T11:52:18.885Z,20.48
2019-04-23T11:56:35.062Z,20.41
2019-04-23T11:57:32.581Z,20.25
2019-04-23T11:59:36.421Z,20.50
2019-04-23T12:00:30.895Z,20.54
2019-04-23T12:01:38.720Z,20.50
2019-04-23T12:02:23.205Z,20.50
2019-04-23T12:03:07.442Z,20.68
2019-04-23T12:04:42.174Z,20.69
2019-04-23T12:05:26.587Z,20.61
2019-04-23T12:07:22.938Z,20.50
2019-04-23T12:08:28.246Z,20.37
2019-04-23T12:09:26.030Z,20.41
2019-04-23T12:12:25.538Z,20.27
2019-04-23T12:13:30.174Z,20.34
2019-04-23T12:14:32.852Z,20.34
2019-04-23T12:15:26.775Z,20.30
2019-04-23T12:16:20.449Z,20.30
2019-04-23T12:17:24.929Z,20.31
2019-04-23T12:18:28.302Z,20.17
2019-04-23T12:19:46.099Z,20.23
2019-04-23T12:20:21.308Z,20.40
2019-04-23T12:21:22.499Z,20.51
2019-04-23T12:23:31.983Z,20.73
2019-04-23T12:24:28.848Z,20.94
2019-04-23T12:25:26.836Z,21.05
2019-04-23T12:26:30.015Z,21.05
2019-04-23T12:27:23.218Z,21.06
2019-04-23T12:28:24.617Z,21.18
2019-04-23T12:29:27.675Z,21.22
2019-04-23T12:30:30.259Z,21.22
2019-04-23T12:31:15.947Z,21.34
2019-04-23T12:32:35.710Z,21.45
2019-04-23T12:34:25.722Z,21.53
2019-04-23T12:35:21.519Z,21.53
2019-04-23T12:36:34.014Z,21.40
2019-04-23T12:37:24.236Z,21.34
2019-04-23T12:39:21.526Z,21.30
2019-04-23T12:40:19.913Z,21.24
2019-04-23T12:41:21.132Z,21.26
2019-04-23T12:42:43.557Z,21.26
2019-04-23T12:43:17.563Z,21.24
2019-04-23T12:44:19.859Z,21.21
2019-04-23T12:46:16.375Z,21.28
2019-04-23T12:47:37.977Z,21.37
2019-04-23T12:48:32.263Z,21.42
2019-04-23T12:49:35.683Z,21.51
2019-04-23T12:50:45.034Z,21.59
2019-04-23T12:51:28.274Z,21.58
2019-04-23T12:52:21.422Z,21.55
2019-04-23T12:54:38.357Z,21.45
2019-04-23T12:55:31.548Z,21.48
2019-04-23T12:56:21.035Z,21.46
2019-04-23T12:57:18.007Z,21.36
2019-04-23T12:58:20.374Z,21.49
2019-04-23T12:59:17.130Z,21.43
2019-04-23T13:00:22.475Z,21.38
2019-04-23T13:01:13.998Z,21.27
2019-04-23T13:02:25.285Z,21.22
2019-04-23T13:03:21.568Z,21.18
2019-04-23T13:04:21.884Z,21.19
2019-04-23T13:05:14.477Z,21.11
2019-04-23T13:06:17.076Z,21.05
2019-04-23T13:07:29.293Z,20.98
2019-04-23T13:08:26.821Z,21.08
2019-04-23T13:09:34.213Z,21.03
2019-04-23T13:10:22.593Z,20.88
2019-04-23T13:11:25.395Z,20.76
2019-04-23T13:12:33.256Z,20.73
2019-04-23T13:13:25.671Z,20.78
2019-04-23T13:14:26.483Z,20.81
2019-04-23T13:15:18.927Z,20.90
2019-04-23T13:16:33.521Z,20.91
2019-04-23T13:17:41.548Z,21.01
2019-04-23T13:18:17.425Z,20.91
2019-04-23T13:19:32.770Z,20.91
2019-04-23T13:21:38.427Z,20.85
2019-04-23T13:22:24.283Z,20.93
2019-04-23T13:24:18.760Z,20.83
2019-04-23T13:25:19.174Z,20.75
2019-04-23T13:26:31.409Z,20.83
2019-04-23T13:27:26.106Z,20.87
2019-04-23T13:29:28.698Z,20.87
2019-04-23T13:30:25.409Z,20.78
2019-04-23T13:32:23.904Z,20.73
2019-04-23T13:33:30.231Z,20.76
2019-04-23T13:34:23.044Z,20.72
2019-04-23T13:35:28.149Z,20.79
2019-04-23T13:36:28.735Z,20.88
2019-04-23T13:37:19.084Z,20.83
2019-04-23T13:38:27.599Z,20.85
2019-04-23T13:39:21.243Z,20.90
2019-04-23T13:40:24.485Z,20.79
2019-04-23T13:41:21.629Z,20.68
2019-04-23T13:42:22.940Z,20.60
2019-04-23T13:43:37.961Z,20.66
2019-04-23T13:44:21.431Z,20.68
2019-04-23T13:45:33.799Z,20.64
2019-04-23T13:46:33.023Z,20.58
2019-04-23T13:47:36.069Z,20.64
2019-04-23T13:49:18.515Z,20.68
2019-04-23T13:50:32.784Z,20.66
2019-04-23T13:51:20.773Z,20.60
2019-04-23T13:52:43.965Z,20.50
2019-04-23T13:53:28.508Z,20.53
2019-04-23T13:54:27.679Z,20.53
2019-04-23T13:55:16.573Z,20.48
2019-04-23T13:57:49.708Z,20.53
2019-04-23T13:58:22.598Z,20.50
2019-04-23T13:59:29.064Z,20.46
2019-04-23T14:00:24.817Z,20.48
2019-04-23T14:02:23.413Z,20.60
2019-04-23T14:03:27.797Z,20.60
2019-04-23T14:04:33.523Z,20.69
2019-04-23T14:05:22.034Z,20.73
2019-04-23T14:06:20.828Z,20.61
2019-04-23T14:07:23.239Z,20.60
2019-04-23T14:08:25.828Z,20.60
2019-04-23T14:09:19.980Z,20.46
2019-04-23T14:11:23.221Z,20.37
2019-04-23T14:12:17.688Z,20.27
2019-04-23T14:14:25.452Z,20.20
2019-04-23T14:15:24.191Z,20.10
2019-04-23T14:16:33.954Z,20.17
2019-04-23T14:17:26.890Z,20.17
2019-04-23T14:18:50.594Z,20.22
2019-04-23T14:19:06.751Z,20.40
2019-04-23T14:20:21.530Z,20.38
2019-04-23T14:21:25.371Z,20.42
2019-04-23T14:22:43.469Z,20.53
2019-04-23T14:23:27.616Z,20.53
2019-04-23T14:24:42.414Z,20.53
2019-04-23T14:25:22.344Z,20.58
2019-04-23T14:27:22.673Z,20.75
2019-04-23T14:28:21.657Z,20.88
2019-04-23T14:29:22.974Z,20.97
2019-04-23T14:30:25.503Z,20.98
2019-04-23T14:36:21.438Z,21.27
2019-04-23T14:38:27.179Z,21.30
2019-04-23T14:39:18.755Z,21.18
2019-04-23T14:43:25.832Z,21.22
2019-04-23T14:44:12.985Z,21.34
2019-04-23T14:45:29.663Z,21.33
2019-04-23T14:49:21.983Z,21.58
2019-04-23T14:51:26.357Z,21.68
2019-04-23T14:52:21.635Z,21.75
2019-04-23T14:54:22.904Z,21.83
2019-04-23T14:56:17.175Z,21.74
2019-04-23T14:58:26.616Z,21.74
2019-04-23T14:59:10.379Z,21.79
2019-04-23T15:00:18.580Z,21.82
2019-04-23T15:02:22.845Z,21.74
2019-04-23T15:04:14.770Z,21.82
2019-04-23T15:05:21.125Z,21.68
2019-04-23T15:07:22.811Z,21.48
2019-04-23T15:08:25.091Z,21.36
2019-04-23T15:09:22.284Z,21.30
2019-04-23T15:10:24.880Z,21.28
2019-04-23T15:11:45.132Z,21.28
2019-04-23T15:13:16.918Z,21.27
2019-04-23T15:14:16.907Z,21.26
2019-04-23T15:15:22.498Z,21.21
2019-04-23T15:16:46.076Z,21.24
2019-04-23T15:18:25.020Z,21.28
2019-04-23T15:20:17.655Z,21.21
2019-04-23T15:21:42.996Z,21.21
2019-04-23T15:22:20.387Z,21.19
2019-04-23T15:23:33.015Z,21.16
2019-04-23T15:24:23.256Z,21.05
2019-04-23T15:25:30.161Z,20.93
2019-04-23T15:27:26.882Z,21.06
2019-04-23T15:28:01.994Z,20.98
2019-04-23T15:28:09.170Z,20.97
2019-04-23T15:29:01.082Z,21.11
2019-04-23T15:30:05.780Z,21.24
2019-04-23T15:31:21.364Z,21.15
2019-04-23T15:32:20.251Z,21.11
2019-04-23T15:34:22.070Z,21.13
2019-04-23T15:35:23.577Z,21.12
2019-04-23T15:37:36.269Z,21.05
2019-04-23T15:38:37.764Z,20.97
2019-04-23T15:39:33.287Z,20.93
2019-04-23T15:40:18.304Z,21.00
2019-04-23T15:41:23.673Z,20.93
2019-04-23T15:42:16.638Z,20.83
2019-04-23T15:43:24.346Z,20.82
2019-04-23T15:45:15.182Z,20.69
2019-04-23T15:46:21.450Z,20.64
2019-04-23T15:47:19.602Z,20.68
2019-04-23T15:48:19.234Z,20.69
2019-04-23T15:52:39.442Z,20.68
2019-04-23T15:53:24.565Z,20.64
2019-04-23T15:54:17.900Z,20.56
2019-04-23T15:55:12.519Z,20.51
2019-04-23T15:56:27.185Z,20.61
2019-04-23T15:57:19.606Z,20.48
2019-04-23T15:58:26.326Z,20.44
2019-04-23T15:59:29.665Z,20.46
2019-04-23T16:00:15.763Z,20.51
2019-04-23T16:01:24.087Z,20.53
2019-04-23T16:01:47.638Z,20.50